createdAt,value
2018-07-02T00:02:36.800Z,16.60
2018-07-02T00:05:05.802Z,16.60
2018-07-02T00:07:34.295Z,16.60
2018-07-02T00:10:02.885Z,16.50
2018-07-02T00:12:31.349Z,16.50
2018-07-02T00:14:59.840Z,16.50
2018-07-02T00:17:28.304Z,16.40
2018-07-02T00:19:56.849Z,16.40
2018-07-02T00:22:25.271Z,16.30
2018-07-02T00:24:53.769Z,16.40
2018-07-02T00:27:22.225Z,16.30
2018-07-02T00:29:50.776Z,16.30
2018-07-02T00:32:19.257Z,16.20
2018-07-02T00:37:15.945Z,16.10
2018-07-02T00:39:44.449Z,16.00
2018-07-02T00:42:12.919Z,16.00
2018-07-02T00:44:41.489Z,16.00
2018-07-02T00:47:09.997Z,16.00
2018-07-02T00:49:38.489Z,16.00
2018-07-02T00:52:07.018Z,15.90
2018-07-02T00:54:35.514Z,15.80
2018-07-02T00:57:04.069Z,15.80
2018-07-02T00:59:32.588Z,15.80
2018-07-02T01:02:01.140Z,15.70
2018-07-02T01:04:29.603Z,15.60
2018-07-02T01:06:58.118Z,15.60
2018-07-02T01:09:26.588Z,15.50
2018-07-02T01:11:55.087Z,15.50
2018-07-02T01:14:23.584Z,15.50
2018-07-02T01:16:52.078Z,15.40
2018-07-02T01:19:20.560Z,15.30
2018-07-02T01:21:49.022Z,15.30
2018-07-02T01:24:17.605Z,15.30
2018-07-02T01:26:46.090Z,15.30
2018-07-02T01:29:14.543Z,15.30
2018-07-02T01:31:43.066Z,15.20
2018-07-02T01:34:11.527Z,15.20
2018-07-02T01:36:39.985Z,15.10
2018-07-02T01:39:09.762Z,15.10
2018-07-02T01:44:06.469Z,15.00
2018-07-02T01:46:34.922Z,15.00
2018-07-02T01:49:03.401Z,15.00
2018-07-02T01:51:31.873Z,14.90
2018-07-02T01:54:00.366Z,14.80
2018-07-02T01:56:28.903Z,14.80
2018-07-02T01:58:57.369Z,14.80
2018-07-02T02:01:25.809Z,14.70
2018-07-02T02:03:54.254Z,14.70
2018-07-02T02:08:50.855Z,14.60
2018-07-02T02:11:19.389Z,14.60
2018-07-02T02:16:15.982Z,14.60
2018-07-02T02:18:44.494Z,14.60
2018-07-02T02:21:12.931Z,14.60
2018-07-02T02:23:41.386Z,14.50
2018-07-02T02:28:37.993Z,14.40
2018-07-02T02:31:06.521Z,14.40
2018-07-02T02:36:03.125Z,14.30
2018-07-02T02:38:31.588Z,14.40
2018-07-02T02:41:00.027Z,14.30
2018-07-02T02:43:28.491Z,14.30
2018-07-02T02:45:56.913Z,14.30
2018-07-02T02:48:25.358Z,14.30
2018-07-02T02:50:53.825Z,14.30
2018-07-02T02:53:22.268Z,14.20
2018-07-02T02:55:50.769Z,14.20
2018-07-02T02:58:19.227Z,14.20
2018-07-02T03:00:47.690Z,14.10
2018-07-02T03:03:16.152Z,14.10
2018-07-02T03:08:12.754Z,14.00
2018-07-02T03:10:41.190Z,14.00
2018-07-02T03:13:09.661Z,13.90
2018-07-02T03:15:38.132Z,13.80
2018-07-02T03:20:35.311Z,13.80
2018-07-02T03:23:03.750Z,13.80
2018-07-02T03:25:32.184Z,13.80
2018-07-02T03:28:00.614Z,13.80
2018-07-02T03:30:29.085Z,13.80
2018-07-02T03:32:57.658Z,13.70
2018-07-02T03:35:26.087Z,13.70
2018-07-02T03:37:54.913Z,13.70
2018-07-02T03:40:23.338Z,13.70
2018-07-02T03:42:51.773Z,13.70
2018-07-02T03:45:20.213Z,13.70
2018-07-02T03:47:48.666Z,13.70
2018-07-02T03:50:17.725Z,13.70
2018-07-02T03:52:46.205Z,13.60
2018-07-02T03:55:14.651Z,13.60
2018-07-02T03:57:43.162Z,13.60
2018-07-02T04:00:11.605Z,13.60
2018-07-02T04:02:40.062Z,13.60
2018-07-02T04:05:08.506Z,13.60
2018-07-02T04:07:36.962Z,13.60
2018-07-02T04:10:05.416Z,13.60
2018-07-02T04:12:33.872Z,13.60
2018-07-02T04:15:02.298Z,13.70
2018-07-02T04:17:30.740Z,13.70
2018-07-02T04:19:59.167Z,13.70
2018-07-02T04:22:27.635Z,13.80
2018-07-02T04:24:56.085Z,13.80
2018-07-02T04:27:24.553Z,13.90
2018-07-02T04:29:53.003Z,13.90
2018-07-02T04:32:21.522Z,14.00
2018-07-02T04:34:49.975Z,14.00
2018-07-02T04:37:18.408Z,14.10
2018-07-02T04:39:46.886Z,14.10
2018-07-02T04:42:15.339Z,14.20
2018-07-02T04:44:43.784Z,14.20
2018-07-02T04:47:12.242Z,14.30
2018-07-02T04:49:40.704Z,14.40
2018-07-02T04:52:09.162Z,14.50
2018-07-02T04:54:37.615Z,14.60
2018-07-02T04:57:06.082Z,14.60
2018-07-02T04:59:34.570Z,14.70
2018-07-02T05:04:31.085Z,14.90
2018-07-02T05:09:27.678Z,15.00
2018-07-02T05:11:56.130Z,15.10
2018-07-02T05:14:24.573Z,15.20
2018-07-02T05:16:53.318Z,15.30
2018-07-02T05:19:21.550Z,15.30
2018-07-02T05:24:18.157Z,15.50
2018-07-02T05:26:46.685Z,15.60
2018-07-02T05:29:15.125Z,15.70
2018-07-02T05:31:43.576Z,15.70
2018-07-02T05:34:12.011Z,15.80
2018-07-02T05:36:40.443Z,15.80
2018-07-02T05:39:10.454Z,15.90
2018-07-02T05:41:38.963Z,15.90
2018-07-02T05:44:07.441Z,16.00
2018-07-02T05:46:35.893Z,16.00
2018-07-02T05:49:04.380Z,16.10
2018-07-02T05:51:32.828Z,16.20
2018-07-02T05:56:29.393Z,16.40
2018-07-02T05:58:57.814Z,16.50
2018-07-02T06:01:26.277Z,16.50
2018-07-02T06:03:54.754Z,16.50
2018-07-02T06:06:23.202Z,16.60
2018-07-02T06:08:51.615Z,16.70
2018-07-02T06:11:20.065Z,16.70
2018-07-02T06:16:16.679Z,16.80
2018-07-02T06:18:45.117Z,16.90
2018-07-02T06:21:13.601Z,16.90
2018-07-02T06:23:42.070Z,17.00
2018-07-02T06:26:10.526Z,17.10
2018-07-02T06:28:38.966Z,17.10
2018-07-02T06:31:07.430Z,17.20
2018-07-02T06:33:35.912Z,17.30
2018-07-02T06:36:04.386Z,17.40
2018-07-02T06:38:32.850Z,17.50
2018-07-02T06:41:01.326Z,17.60
2018-07-02T06:43:29.746Z,17.80
2018-07-02T06:45:58.171Z,17.80
2018-07-02T06:48:26.613Z,17.90
2018-07-02T06:50:55.051Z,18.00
2018-07-02T06:53:23.478Z,18.00
2018-07-02T06:55:51.905Z,17.90
2018-07-02T06:58:20.417Z,18.10
2018-07-02T07:00:48.867Z,18.30
2018-07-02T07:03:17.316Z,18.30
2018-07-02T07:05:45.805Z,18.40
2018-07-02T07:10:42.368Z,18.50
2018-07-02T07:13:10.866Z,18.50
2018-07-02T07:15:39.317Z,18.60
2018-07-02T07:20:35.906Z,18.80
2018-07-02T07:23:04.674Z,18.90
2018-07-02T07:28:01.339Z,19.00
2018-07-02T07:30:29.793Z,19.10
2018-07-02T07:32:58.202Z,19.30
2018-07-02T07:35:26.650Z,19.40
2018-07-02T07:37:55.096Z,19.30
2018-07-02T07:40:23.542Z,19.40
2018-07-02T07:42:51.986Z,19.40
2018-07-02T07:45:20.427Z,19.60
2018-07-02T07:47:48.846Z,19.50
2018-07-02T07:52:45.436Z,19.80
2018-07-02T07:55:13.857Z,19.90
2018-07-02T07:57:42.319Z,20.10
2018-07-02T08:00:10.786Z,20.40
2018-07-02T08:02:39.247Z,20.30
2018-07-02T08:05:07.711Z,20.40
2018-07-02T08:07:36.167Z,20.50
2018-07-02T08:12:32.821Z,20.80
2018-07-02T08:17:29.393Z,20.80
2018-07-02T08:19:57.865Z,20.70
2018-07-02T08:24:54.403Z,21.00
2018-07-02T08:27:22.883Z,21.20
2018-07-02T08:29:51.311Z,21.30
2018-07-02T08:32:19.742Z,21.20
2018-07-02T08:34:48.172Z,21.10
2018-07-02T08:37:16.618Z,21.40
2018-07-02T08:39:45.047Z,21.60
2018-07-02T08:42:13.485Z,21.60
2018-07-02T08:44:41.934Z,21.70
2018-07-02T08:49:38.514Z,21.90
2018-07-02T08:52:06.937Z,21.90
2018-07-02T08:54:35.389Z,21.90
2018-07-02T08:57:03.877Z,22.20
2018-07-02T08:59:32.630Z,22.30
2018-07-02T09:02:01.122Z,22.60
2018-07-02T09:04:29.890Z,22.70
2018-07-02T09:06:58.461Z,22.90
2018-07-02T09:09:26.849Z,23.20
2018-07-02T09:11:55.288Z,22.90
2018-07-02T09:14:23.709Z,22.80
2018-07-02T09:19:20.293Z,23.20
2018-07-02T09:21:48.878Z,23.00
2018-07-02T09:24:17.201Z,23.40
2018-07-02T09:26:45.629Z,23.50
2018-07-02T09:29:14.057Z,23.70
2018-07-02T09:31:42.496Z,23.90
2018-07-02T09:34:10.922Z,23.90
2018-07-02T09:36:39.825Z,23.90
2018-07-02T09:39:10.623Z,24.40
2018-07-02T09:41:39.006Z,24.30
2018-07-02T09:44:07.533Z,24.50
2018-07-02T09:46:36.313Z,24.70
2018-07-02T09:51:33.387Z,23.80
2018-07-02T09:56:30.976Z,24.00
2018-07-02T09:58:59.414Z,24.60
2018-07-02T10:01:27.821Z,25.00
2018-07-02T10:06:24.438Z,25.80
2018-07-02T10:08:52.924Z,25.20
2018-07-02T10:11:21.350Z,25.00
2018-07-02T10:13:49.789Z,25.70
2018-07-02T10:16:18.222Z,25.90
2018-07-02T10:18:46.706Z,26.50
2018-07-02T10:21:15.159Z,26.30
2018-07-02T10:23:43.677Z,26.10
2018-07-02T10:26:12.070Z,26.50
2018-07-02T10:28:40.490Z,27.40
2018-07-02T10:31:09.050Z,28.10
2018-07-02T10:33:37.436Z,28.10
2018-07-02T10:36:05.945Z,27.60
2018-07-02T10:38:34.559Z,28.40
2018-07-02T10:41:03.014Z,28.30
2018-07-02T10:43:33.878Z,27.60
2018-07-02T10:46:02.359Z,28.20
2018-07-02T10:48:30.783Z,28.40
2018-07-02T10:50:59.230Z,28.70
2018-07-02T10:53:28.341Z,28.90
2018-07-02T10:55:56.947Z,29.10
2018-07-02T11:00:53.535Z,29.50
2018-07-02T11:03:22.001Z,29.90
2018-07-02T11:05:50.502Z,30.10
2018-07-02T11:08:18.939Z,30.30
2018-07-02T11:10:48.073Z,30.50
2018-07-02T11:13:16.503Z,30.40
2018-07-02T11:15:44.949Z,30.80
2018-07-02T11:18:13.388Z,29.30
2018-07-02T11:20:42.353Z,30.70
2018-07-02T11:25:39.442Z,31.20
2018-07-02T11:28:08.082Z,31.00
2018-07-02T11:30:36.687Z,31.80
2018-07-02T11:33:05.346Z,29.90
2018-07-02T11:35:33.805Z,29.70
2018-07-02T11:38:02.382Z,29.80
2018-07-02T11:40:30.905Z,29.20
2018-07-02T11:42:59.414Z,29.40
2018-07-02T11:45:27.853Z,30.10
2018-07-02T11:47:56.309Z,29.60
2018-07-02T11:50:24.778Z,29.40
2018-07-02T11:52:53.343Z,29.60
2018-07-02T11:55:21.806Z,29.50
2018-07-02T12:00:18.409Z,27.10
2018-07-02T12:02:46.877Z,28.00
2018-07-02T12:05:15.339Z,29.00
2018-07-02T12:07:43.786Z,27.80
2018-07-02T12:12:40.373Z,29.00
2018-07-02T12:15:08.839Z,29.50
2018-07-02T12:17:37.269Z,29.70
2018-07-02T12:20:05.972Z,29.40
2018-07-02T12:22:34.403Z,28.50
2018-07-02T12:25:02.837Z,28.60
2018-07-02T12:27:31.310Z,28.50
2018-07-02T12:29:59.790Z,28.90
2018-07-02T12:32:28.234Z,29.30
2018-07-02T12:34:56.734Z,29.50
2018-07-02T12:37:25.170Z,29.50
2018-07-02T12:39:53.597Z,29.80
2018-07-02T12:42:22.078Z,29.70
2018-07-02T12:44:50.554Z,29.20
2018-07-02T12:47:19.033Z,29.50
2018-07-02T12:49:47.499Z,29.60
2018-07-02T12:52:15.946Z,28.80
2018-07-02T12:54:44.414Z,29.00
2018-07-02T12:59:40.990Z,28.40
2018-07-02T13:02:09.489Z,29.00
2018-07-02T13:04:37.921Z,29.40
2018-07-02T13:09:34.554Z,30.40
2018-07-02T13:12:03.575Z,30.60
2018-07-02T13:14:31.989Z,30.50
2018-07-02T13:17:00.506Z,30.30
2018-07-02T13:19:28.908Z,30.20
2018-07-02T13:24:25.457Z,30.70
2018-07-02T13:26:53.929Z,30.90
2018-07-02T13:29:22.341Z,30.20
2018-07-02T13:31:50.766Z,30.70
2018-07-02T13:34:19.195Z,30.90
2018-07-02T13:36:47.633Z,30.00
2018-07-02T13:39:16.090Z,30.00
2018-07-02T13:41:44.535Z,31.50
2018-07-02T13:44:12.981Z,33.00
2018-07-02T13:46:41.420Z,34.60
2018-07-02T13:49:09.907Z,34.50
2018-07-02T13:51:38.350Z,35.70
2018-07-02T13:54:06.848Z,34.80
2018-07-02T13:56:35.706Z,33.90
2018-07-02T13:59:04.319Z,33.20
2018-07-02T14:01:32.770Z,34.40
2018-07-02T14:04:01.267Z,34.20
2018-07-02T14:06:29.717Z,34.80
2018-07-02T14:08:58.169Z,36.10
2018-07-02T14:11:26.609Z,36.30
2018-07-02T14:13:55.003Z,34.10
2018-07-02T14:16:23.475Z,33.60
2018-07-02T14:18:51.890Z,32.50
2018-07-02T14:21:20.346Z,31.10
2018-07-02T14:23:48.777Z,32.00
2018-07-02T14:28:45.361Z,36.10
2018-07-02T14:31:13.850Z,36.20
2018-07-02T14:33:43.641Z,36.20
2018-07-02T14:38:40.408Z,33.30
2018-07-02T14:41:08.897Z,34.40
2018-07-02T14:43:37.655Z,36.20
2018-07-02T14:48:34.276Z,36.00
2018-07-02T14:51:02.760Z,35.70
2018-07-02T14:53:31.186Z,34.40
2018-07-02T14:55:59.667Z,34.10
2018-07-02T14:58:28.103Z,34.80
2018-07-02T15:00:56.637Z,35.10
2018-07-02T15:03:25.050Z,35.70
2018-07-02T15:05:53.499Z,36.40
2018-07-02T15:08:21.909Z,36.70
2018-07-02T15:10:50.337Z,37.20
2018-07-02T15:13:18.793Z,34.50
2018-07-02T15:18:15.817Z,34.40
2018-07-02T15:20:44.214Z,35.70
2018-07-02T15:23:12.946Z,36.50
2018-07-02T15:25:41.380Z,37.30
2018-07-02T15:28:09.829Z,36.10
2018-07-02T15:30:38.294Z,36.00
2018-07-02T15:33:06.769Z,35.30
2018-07-02T15:35:35.224Z,35.20
2018-07-02T15:40:31.805Z,36.30
2018-07-02T15:43:00.255Z,34.50
2018-07-02T15:45:28.718Z,34.50
2018-07-02T15:47:57.149Z,33.00
2018-07-02T15:50:25.570Z,31.20
2018-07-02T15:52:54.851Z,30.00
2018-07-02T15:55:23.306Z,28.80
2018-07-02T15:57:51.869Z,27.90
2018-07-02T16:00:20.220Z,27.70
2018-07-02T16:02:48.653Z,27.30
2018-07-02T16:05:17.113Z,27.40
2018-07-02T16:07:45.543Z,27.40
2018-07-02T16:10:13.985Z,27.20
2018-07-02T16:12:42.411Z,27.30
2018-07-02T16:15:10.870Z,27.30
2018-07-02T16:17:39.316Z,27.20
2018-07-02T16:20:07.834Z,26.90
2018-07-02T16:22:36.294Z,26.70
2018-07-02T16:25:04.794Z,27.60
2018-07-02T16:27:33.235Z,28.10
2018-07-02T16:30:01.738Z,27.70
2018-07-02T16:32:30.207Z,27.00
2018-07-02T16:34:58.727Z,26.60
2018-07-02T16:37:27.149Z,26.30
2018-07-02T16:39:55.613Z,26.10
2018-07-02T16:42:24.065Z,26.10
2018-07-02T16:44:52.498Z,26.00
2018-07-02T16:47:20.977Z,25.90
2018-07-02T16:49:49.409Z,25.70
2018-07-02T16:52:17.850Z,25.50
2018-07-02T16:54:46.318Z,25.40
2018-07-02T16:57:14.793Z,25.20
2018-07-02T16:59:43.235Z,25.10
2018-07-02T17:02:11.747Z,24.80
2018-07-02T17:04:40.164Z,24.80
2018-07-02T17:07:08.677Z,24.80
2018-07-02T17:09:37.131Z,24.80
2018-07-02T17:12:05.633Z,24.80
2018-07-02T17:14:34.095Z,24.70
2018-07-02T17:17:02.581Z,24.60
2018-07-02T17:19:31.011Z,24.40
2018-07-02T17:21:59.454Z,24.50
2018-07-02T17:24:27.876Z,24.50
2018-07-02T17:26:56.362Z,24.50
2018-07-02T17:29:24.848Z,24.50
2018-07-02T17:31:53.390Z,24.30
2018-07-02T17:34:21.837Z,24.30
2018-07-02T17:36:50.320Z,24.10
2018-07-02T17:39:19.075Z,24.10
2018-07-02T17:41:47.529Z,24.10
2018-07-02T17:44:15.989Z,24.10
2018-07-02T17:49:12.622Z,23.90
2018-07-02T17:51:41.073Z,23.80
2018-07-02T17:54:09.501Z,23.80
2018-07-02T17:56:37.962Z,23.70
2018-07-02T17:59:06.397Z,23.60
2018-07-02T18:01:34.856Z,23.60
2018-07-02T18:08:59.641Z,23.20
2018-07-02T18:11:28.101Z,23.00
2018-07-02T18:13:56.578Z,22.90
2018-07-02T18:16:25.015Z,22.90
2018-07-02T18:21:21.545Z,22.70
2018-07-02T18:23:50.015Z,22.60
2018-07-02T18:26:18.432Z,22.50
2018-07-02T18:28:46.874Z,22.40
2018-07-02T18:31:15.381Z,22.20
2018-07-02T18:33:43.834Z,22.10
2018-07-02T18:36:12.274Z,22.00
2018-07-02T18:38:41.246Z,21.90
2018-07-02T18:41:09.705Z,21.80
2018-07-02T18:43:38.213Z,21.70
2018-07-02T18:46:06.746Z,21.60
2018-07-02T18:48:35.194Z,21.50
2018-07-02T18:51:03.675Z,21.40
2018-07-02T18:53:32.109Z,21.30
2018-07-02T18:56:00.724Z,21.30
2018-07-02T18:58:29.639Z,21.20
2018-07-02T19:00:58.112Z,21.20
2018-07-02T19:03:26.615Z,21.10
2018-07-02T19:05:55.202Z,21.00
2018-07-02T19:08:24.031Z,20.90
2018-07-02T19:10:52.455Z,20.90
2018-07-02T19:13:20.953Z,20.80
2018-07-02T19:15:49.385Z,20.70
2018-07-02T19:18:17.836Z,20.60
2018-07-02T19:23:14.454Z,20.40
2018-07-02T19:25:42.901Z,20.30
2018-07-02T19:28:11.107Z,20.20
2018-07-02T19:30:39.556Z,20.10
2018-07-02T19:33:08.070Z,20.00
2018-07-02T19:35:36.549Z,19.90
2018-07-02T19:38:05.032Z,19.70
2018-07-02T19:40:33.522Z,19.60
2018-07-02T19:43:02.007Z,19.60
2018-07-02T19:45:30.449Z,19.50
2018-07-02T19:47:58.901Z,19.30
2018-07-02T19:52:55.559Z,19.10
2018-07-02T19:55:24.197Z,19.10
2018-07-02T19:57:52.698Z,19.10
2018-07-02T20:00:21.143Z,18.90
2018-07-02T20:02:49.646Z,18.80
2018-07-02T20:05:18.098Z,18.80
2018-07-02T20:07:46.550Z,18.70
2018-07-02T20:10:14.997Z,18.70
2018-07-02T20:12:44.281Z,18.60
2018-07-02T20:15:12.763Z,18.50
2018-07-02T20:17:41.207Z,18.50
2018-07-02T20:20:10.806Z,18.40
2018-07-02T20:22:39.679Z,18.30
2018-07-02T20:25:08.481Z,18.30
2018-07-02T20:27:37.032Z,18.20
2018-07-02T20:32:34.442Z,18.00
2018-07-02T20:35:02.934Z,18.00
2018-07-02T20:37:31.461Z,18.00
2018-07-02T20:42:28.125Z,17.90
2018-07-02T20:47:24.763Z,17.80
2018-07-02T20:49:53.205Z,17.80
2018-07-02T20:52:21.639Z,17.70
2018-07-02T20:57:18.230Z,17.80
2018-07-02T20:59:46.707Z,17.80
2018-07-02T21:02:15.193Z,17.80
2018-07-02T21:04:43.617Z,17.70
2018-07-02T21:07:12.076Z,17.70
2018-07-02T21:09:40.530Z,17.70
2018-07-02T21:12:09.033Z,17.60
2018-07-02T21:14:37.453Z,17.60
2018-07-02T21:17:05.894Z,17.50
2018-07-02T21:19:34.346Z,17.40
2018-07-02T21:22:02.808Z,17.40
2018-07-02T21:24:31.237Z,17.20
2018-07-02T21:26:59.711Z,17.10
2018-07-02T21:29:28.174Z,17.10
2018-07-02T21:31:56.630Z,17.00
2018-07-02T21:34:25.053Z,17.00
2018-07-02T21:36:53.514Z,16.90
2018-07-02T21:39:21.960Z,16.80
2018-07-02T21:41:50.392Z,16.70
2018-07-02T21:44:18.809Z,16.70
2018-07-02T21:46:47.234Z,16.60
2018-07-02T21:49:15.681Z,16.60
2018-07-02T21:51:44.098Z,16.60
2018-07-02T21:54:12.571Z,16.50
2018-07-02T21:56:40.978Z,16.40
2018-07-02T21:59:09.536Z,16.30
2018-07-02T22:01:38.037Z,16.20
2018-07-02T22:04:06.530Z,16.20
2018-07-02T22:06:34.978Z,16.20
2018-07-02T22:09:04.042Z,16.10
2018-07-02T22:11:32.480Z,16.10
2018-07-02T22:14:00.946Z,16.20
2018-07-02T22:16:29.409Z,16.10
2018-07-02T22:18:57.876Z,16.10
2018-07-02T22:21:26.280Z,16.00
2018-07-02T22:23:54.697Z,15.90
2018-07-02T22:28:51.273Z,16.00
2018-07-02T22:31:19.761Z,16.00
2018-07-02T22:33:48.198Z,16.10
2018-07-02T22:38:44.797Z,16.10
2018-07-02T22:41:13.225Z,16.10
2018-07-02T22:43:41.694Z,16.10
2018-07-02T22:46:10.134Z,16.20
2018-07-02T22:48:38.573Z,16.20
2018-07-02T22:53:35.157Z,16.20
2018-07-02T22:56:04.766Z,16.20
2018-07-02T22:58:33.213Z,16.20
2018-07-02T23:03:30.257Z,16.20
2018-07-02T23:05:58.705Z,16.20
2018-07-02T23:08:27.585Z,16.10
2018-07-02T23:10:56.346Z,16.00
2018-07-02T23:13:25.117Z,16.00
2018-07-02T23:15:58.716Z,16.00
2018-07-02T23:18:27.134Z,16.00
2018-07-02T23:20:55.569Z,16.00
2018-07-02T23:23:23.985Z,16.00
2018-07-02T23:25:53.392Z,16.10
2018-07-02T23:28:21.824Z,16.10
2018-07-02T23:30:50.306Z,16.10
2018-07-02T23:33:18.738Z,16.00
2018-07-02T23:35:47.365Z,16.00
2018-07-02T23:38:15.809Z,15.90
2018-07-02T23:40:44.274Z,15.90
2018-07-02T23:43:12.712Z,15.90
2018-07-02T23:45:41.218Z,15.80
2018-07-02T23:48:09.701Z,15.80
2018-07-02T23:50:38.107Z,15.80
2018-07-02T23:53:06.589Z,15.80
2018-07-02T23:55:35.009Z,15.70
2018-07-02T23:58:03.514Z,15.60
